createdAt,value
2022-11-20T00:00:20.889Z,2.40
2022-11-20T00:02:47.763Z,2.72
2022-11-20T00:05:14.785Z,3.13
2022-11-20T00:07:41.851Z,2.60
2022-11-20T00:10:09.116Z,3.22
2022-11-20T00:12:36.013Z,2.88
2022-11-20T00:15:02.980Z,2.95
2022-11-20T00:17:29.877Z,3.00
2022-11-20T00:19:56.839Z,2.63
2022-11-20T00:22:23.782Z,2.88
2022-11-20T00:24:50.656Z,3.00
2022-11-20T00:27:17.580Z,2.90
2022-11-20T00:29:44.556Z,2.60
2022-11-20T00:32:11.460Z,2.75
2022-11-20T00:34:38.342Z,2.92
2022-11-20T00:37:05.435Z,2.72
2022-11-20T00:39:32.393Z,3.25
2022-11-20T00:41:59.246Z,2.45
2022-11-20T00:44:26.152Z,2.78
2022-11-20T00:46:53.075Z,2.78
2022-11-20T00:49:20.425Z,3.15
2022-11-20T00:51:47.416Z,3.13
2022-11-20T00:54:14.440Z,2.65
2022-11-20T00:56:41.328Z,3.15
2022-11-20T00:59:10.900Z,3.35
2022-11-20T01:01:38.857Z,3.03
2022-11-20T01:04:06.260Z,3.17
2022-11-20T01:06:39.141Z,2.72
2022-11-20T01:09:11.686Z,2.85
2022-11-20T01:11:42.726Z,2.60
2022-11-20T01:14:16.837Z,3.08
2022-11-20T01:16:46.671Z,2.85
2022-11-20T01:19:18.183Z,2.47
2022-11-20T01:21:47.331Z,3.42
2022-11-20T01:24:16.756Z,2.72
2022-11-20T01:26:46.011Z,2.95
2022-11-20T01:29:19.503Z,2.85
2022-11-20T01:31:46.726Z,2.75
2022-11-20T01:34:15.970Z,2.83
2022-11-20T01:36:43.805Z,2.67
2022-11-20T01:39:17.064Z,3.08
2022-11-20T01:42:08.387Z,3.05
2022-11-20T01:44:52.089Z,2.42
2022-11-20T01:47:35.350Z,2.83
2022-11-20T01:50:10.957Z,2.42
2022-11-20T01:52:46.579Z,2.33
2022-11-20T01:55:18.850Z,2.37
2022-11-20T01:57:48.450Z,2.50
2022-11-20T02:00:18.218Z,2.30
2022-11-20T02:03:02.220Z,3.38
2022-11-20T02:05:58.988Z,2.60
2022-11-20T02:08:26.003Z,2.85
2022-11-20T02:10:53.012Z,2.47
2022-11-20T02:13:38.693Z,2.97
2022-11-20T02:16:09.382Z,3.53
2022-11-20T02:18:36.744Z,3.08
2022-11-20T02:21:21.266Z,3.20
2022-11-20T02:24:08.206Z,3.35
2022-11-20T02:26:47.141Z,2.70
2022-11-20T02:29:16.610Z,2.75
2022-11-20T02:31:44.842Z,3.00
2022-11-20T02:34:12.040Z,2.17
2022-11-20T02:36:41.404Z,3.05
2022-11-20T02:39:09.478Z,2.80
2022-11-20T02:41:38.295Z,2.70
2022-11-20T02:44:06.346Z,2.80
2022-11-20T02:46:34.458Z,2.65
2022-11-20T02:49:03.822Z,2.75
2022-11-20T02:51:31.415Z,2.45
2022-11-20T02:53:58.546Z,3.47
2022-11-20T02:56:25.708Z,3.42
2022-11-20T02:58:52.801Z,2.30
2022-11-20T03:01:19.863Z,2.22
2022-11-20T03:03:46.878Z,2.17
2022-11-20T03:06:13.821Z,2.60
2022-11-20T03:08:40.730Z,2.30
2022-11-20T03:11:08.628Z,2.10
2022-11-20T03:13:36.585Z,2.45
2022-11-20T03:16:12.723Z,2.55
2022-11-20T03:18:41.244Z,1.80
2022-11-20T03:21:09.543Z,2.10
2022-11-20T03:23:37.347Z,2.08
2022-11-20T03:26:13.171Z,2.13
2022-11-20T03:28:40.441Z,2.50
2022-11-20T03:31:09.495Z,2.70
2022-11-20T03:33:36.486Z,3.25
2022-11-20T03:36:08.647Z,2.35
2022-11-20T03:38:35.890Z,3.20
2022-11-20T03:41:05.373Z,2.00
2022-11-20T03:43:33.119Z,2.22
2022-11-20T03:46:00.464Z,1.83
2022-11-20T03:48:28.074Z,2.22
2022-11-20T03:51:15.130Z,2.40
2022-11-20T03:56:11.386Z,2.65
2022-11-20T03:58:43.040Z,2.42
2022-11-20T04:01:15.588Z,2.45
2022-11-20T04:03:43.603Z,2.88
2022-11-20T04:06:13.855Z,3.53
2022-11-20T04:08:41.497Z,2.28
2022-11-20T04:11:22.593Z,3.13
2022-11-20T04:13:54.937Z,2.40
2022-11-20T04:16:24.173Z,2.05
2022-11-20T04:18:59.416Z,2.05
2022-11-20T04:21:27.380Z,1.95
2022-11-20T04:23:55.504Z,2.50
2022-11-20T04:26:24.318Z,2.58
2022-11-20T04:28:51.401Z,2.50
2022-11-20T04:31:21.847Z,2.20
2022-11-20T04:33:49.090Z,2.50
2022-11-20T04:36:19.160Z,1.88
2022-11-20T04:38:46.539Z,2.53
2022-11-20T04:41:19.425Z,1.88
2022-11-20T04:44:00.049Z,2.25
2022-11-20T04:46:28.589Z,2.03
2022-11-20T04:48:55.981Z,2.13
2022-11-20T04:51:23.001Z,3.00
2022-11-20T04:53:50.252Z,2.30
2022-11-20T04:56:17.220Z,2.47
2022-11-20T04:58:45.031Z,1.88
2022-11-20T05:01:14.902Z,2.28
2022-11-20T05:03:42.995Z,1.92
2022-11-20T05:06:12.356Z,2.88
2022-11-20T05:08:39.467Z,2.33
2022-11-20T05:11:09.198Z,2.28
2022-11-20T05:13:36.261Z,2.20
2022-11-20T05:16:05.878Z,2.17
2022-11-20T05:18:33.951Z,2.53
2022-11-20T05:21:01.211Z,1.73
2022-11-20T05:23:28.508Z,2.13
2022-11-20T05:25:59.405Z,1.83
2022-11-20T05:28:27.929Z,2.83
2022-11-20T05:30:54.888Z,1.88
2022-11-20T05:33:22.129Z,2.35
2022-11-20T05:35:49.586Z,2.33
2022-11-20T05:38:17.179Z,2.10
2022-11-20T05:40:44.207Z,2.30
2022-11-20T05:43:11.138Z,2.00
2022-11-20T05:45:38.131Z,2.78
2022-11-20T05:48:05.338Z,2.65
2022-11-20T05:50:32.478Z,2.38
2022-11-20T05:53:00.730Z,2.78
2022-11-20T05:55:28.614Z,2.10
2022-11-20T05:57:56.256Z,2.40
2022-11-20T06:00:23.490Z,1.85
2022-11-20T06:02:50.664Z,2.15
2022-11-20T06:05:17.574Z,2.08
2022-11-20T06:07:44.690Z,2.20
2022-11-20T06:10:12.594Z,2.22
2022-11-20T06:12:39.479Z,2.40
2022-11-20T06:15:07.278Z,2.42
2022-11-20T06:17:34.262Z,1.80
2022-11-20T06:20:01.191Z,2.28
2022-11-20T06:22:28.083Z,2.30
2022-11-20T06:24:55.075Z,2.15
2022-11-20T06:27:21.969Z,2.40
2022-11-20T06:29:48.865Z,2.03
2022-11-20T06:32:15.748Z,2.85
2022-11-20T06:34:42.738Z,2.35
2022-11-20T06:37:09.759Z,2.45
2022-11-20T06:39:36.774Z,2.42
2022-11-20T06:42:03.834Z,2.50
2022-11-20T06:44:30.766Z,2.75
2022-11-20T06:46:57.684Z,2.60
2022-11-20T06:49:24.985Z,1.80
2022-11-20T06:51:52.018Z,2.50
2022-11-20T06:54:18.867Z,2.58
2022-11-20T06:56:49.071Z,2.22
2022-11-20T06:59:16.198Z,2.40
2022-11-20T07:01:43.044Z,3.20
2022-11-20T07:04:10.255Z,2.67
2022-11-20T07:06:37.247Z,2.95
2022-11-20T07:09:08.529Z,2.47
2022-11-20T07:11:38.529Z,2.42
2022-11-20T07:14:05.604Z,2.47
2022-11-20T07:16:32.520Z,2.53
2022-11-20T07:18:59.431Z,2.42
2022-11-20T07:21:26.306Z,3.35
2022-11-20T07:23:53.323Z,2.38
2022-11-20T07:26:20.659Z,2.85
2022-11-20T07:28:47.670Z,2.83
2022-11-20T07:31:18.796Z,2.58
2022-11-20T07:33:46.475Z,3.10
2022-11-20T07:36:13.387Z,2.92
2022-11-20T07:38:40.251Z,2.55
2022-11-20T07:41:07.225Z,2.60
2022-11-20T07:43:39.804Z,2.65
2022-11-20T07:46:08.210Z,2.35
2022-11-20T07:48:35.226Z,1.90
2022-11-20T07:51:02.276Z,2.50
2022-11-20T07:53:29.120Z,2.38
2022-11-20T07:55:56.044Z,3.63
2022-11-20T07:58:23.016Z,2.97
2022-11-20T08:00:50.179Z,2.88
2022-11-20T08:03:21.686Z,3.40
2022-11-20T08:05:51.455Z,3.25
2022-11-20T08:08:18.326Z,3.30
2022-11-20T08:10:45.231Z,2.90
2022-11-20T08:13:30.643Z,3.42
2022-11-20T08:15:57.554Z,3.03
2022-11-20T08:18:32.691Z,3.20
2022-11-20T08:21:04.887Z,2.97
2022-11-20T08:23:32.142Z,2.95
2022-11-20T08:25:59.192Z,3.28
2022-11-20T08:28:26.098Z,3.03
2022-11-20T08:30:59.377Z,3.50
2022-11-20T08:33:26.547Z,2.75
2022-11-20T08:35:53.453Z,4.00
2022-11-20T08:38:20.361Z,2.78
2022-11-20T08:41:07.168Z,3.95
2022-11-20T08:46:01.702Z,3.38
2022-11-20T08:48:28.608Z,2.63
2022-11-20T08:50:59.480Z,2.67
2022-11-20T08:53:27.610Z,2.97
2022-11-20T08:55:54.899Z,3.60
2022-11-20T08:58:21.798Z,2.78
2022-11-20T09:00:48.757Z,4.00
2022-11-20T09:03:15.637Z,2.85
2022-11-20T09:05:43.824Z,2.45
2022-11-20T09:08:10.734Z,3.15
2022-11-20T09:10:40.727Z,3.05
2022-11-20T09:13:07.894Z,3.70
2022-11-20T09:15:35.391Z,3.20
2022-11-20T09:18:04.756Z,3.28
2022-11-20T09:20:32.187Z,3.60
2022-11-20T09:22:59.211Z,2.92
2022-11-20T09:25:26.393Z,4.20
2022-11-20T09:28:00.450Z,3.47
2022-11-20T09:30:28.220Z,3.25
2022-11-20T09:32:55.818Z,3.53
2022-11-20T09:35:22.712Z,3.50
2022-11-20T09:37:51.174Z,3.58
2022-11-20T09:40:22.467Z,2.80
2022-11-20T09:43:17.962Z,3.03
2022-11-20T10:17:39.682Z,2.97
2022-11-20T10:20:26.503Z,2.75
2022-11-20T10:23:09.716Z,2.85
2022-11-20T10:26:02.842Z,2.75
2022-11-20T10:28:55.402Z,2.92
2022-11-20T10:31:47.233Z,3.55
2022-11-20T10:34:27.003Z,3.60
2022-11-20T10:37:04.880Z,2.92
2022-11-20T10:40:13.202Z,3.53
2022-11-20T10:42:46.714Z,2.97
2022-11-20T10:45:25.466Z,3.00
2022-11-20T10:47:56.473Z,3.70
2022-11-20T10:50:24.426Z,2.78
2022-11-20T10:53:02.381Z,3.67
2022-11-20T10:55:41.725Z,2.55
2022-11-20T10:58:15.888Z,3.17
2022-11-20T11:00:43.394Z,2.70
2022-11-20T11:03:36.684Z,2.58
2022-11-20T11:06:11.538Z,3.33
2022-11-20T11:08:42.173Z,3.13
2022-11-20T11:11:28.852Z,4.13
2022-11-20T11:14:13.537Z,4.18
2022-11-20T11:16:56.741Z,3.22
2022-11-20T11:19:23.886Z,3.45
2022-11-20T11:21:55.766Z,3.65
2022-11-20T11:24:45.979Z,3.03
2022-11-20T11:27:18.921Z,3.15
2022-11-20T11:29:48.765Z,3.55
2022-11-20T11:32:19.912Z,3.08
2022-11-20T11:34:59.470Z,3.08
2022-11-20T11:37:33.933Z,3.47
2022-11-20T11:40:23.762Z,2.95
2022-11-20T11:43:02.188Z,3.67
2022-11-20T11:45:29.414Z,3.42
2022-11-20T11:47:59.866Z,2.72
2022-11-20T11:50:28.966Z,3.28
2022-11-20T11:53:15.400Z,3.33
2022-11-20T11:56:09.866Z,3.40
2022-11-20T11:58:50.704Z,3.78
2022-11-20T12:01:35.276Z,2.83
2022-11-20T12:04:23.578Z,4.10
2022-11-20T12:06:58.960Z,3.78
2022-11-20T12:09:38.682Z,5.55
2022-11-20T12:12:21.135Z,4.68
2022-11-20T12:14:52.013Z,3.97
2022-11-20T12:17:19.040Z,3.22
2022-11-20T12:19:45.998Z,3.85
2022-11-20T12:22:46.936Z,3.10
2022-11-20T12:25:16.786Z,3.65
2022-11-20T12:28:20.589Z,3.58
2022-11-20T12:31:15.200Z,5.25
2022-11-20T12:33:56.839Z,3.78
2022-11-20T12:36:29.612Z,4.25
2022-11-20T12:38:59.685Z,3.67
2022-11-20T12:42:00.754Z,3.53
2022-11-20T12:45:13.223Z,3.60
2022-11-20T12:47:48.816Z,3.30
2022-11-20T12:51:13.550Z,3.33
2022-11-20T12:54:18.130Z,3.90
2022-11-20T12:57:03.446Z,3.72
2022-11-20T12:59:48.666Z,3.63
2022-11-20T13:02:39.426Z,4.15
2022-11-20T13:05:33.792Z,4.85
2022-11-20T13:08:03.160Z,5.03
2022-11-20T13:10:50.257Z,4.32
2022-11-20T13:13:31.092Z,4.53
2022-11-20T13:16:26.278Z,4.18
2022-11-20T13:18:53.429Z,4.65
2022-11-20T13:21:36.731Z,5.03
2022-11-20T13:24:07.469Z,4.60
2022-11-20T13:26:35.229Z,4.25
2022-11-20T13:29:17.588Z,3.85
2022-11-20T13:31:47.043Z,4.93
2022-11-20T13:34:27.167Z,5.03
2022-11-20T13:36:56.906Z,6.00
2022-11-20T13:39:34.740Z,4.78
2022-11-20T13:42:04.371Z,4.38
2022-11-20T13:44:36.798Z,4.82
2022-11-20T13:47:03.764Z,6.15
2022-11-20T13:49:45.833Z,3.53
2022-11-20T13:52:50.283Z,4.57
2022-11-20T13:55:20.541Z,5.07
2022-11-20T13:57:50.487Z,4.03
2022-11-20T14:00:20.722Z,5.35
2022-11-20T14:03:06.270Z,5.03
2022-11-20T14:05:38.482Z,4.53
2022-11-20T14:08:11.838Z,4.75
2022-11-20T14:10:40.594Z,4.88
2022-11-20T14:13:22.087Z,5.20
2022-11-20T14:15:48.983Z,4.75
2022-11-20T14:18:21.431Z,4.88
2022-11-20T14:20:49.114Z,3.92
2022-11-20T14:23:30.316Z,6.18
2022-11-20T14:25:58.061Z,5.03
2022-11-20T14:28:31.174Z,7.75
2022-11-20T14:30:58.879Z,4.78
2022-11-20T14:33:28.125Z,5.22
2022-11-20T14:35:57.490Z,4.65
2022-11-20T14:38:29.689Z,5.32
2022-11-20T14:41:07.759Z,5.47
2022-11-20T14:43:37.012Z,5.18
2022-11-20T14:46:10.158Z,6.05
2022-11-20T14:48:43.008Z,5.15
2022-11-20T14:51:34.052Z,5.00
2022-11-20T14:54:12.062Z,5.93
2022-11-20T14:56:39.119Z,5.85
2022-11-20T14:59:06.763Z,5.60
2022-11-20T15:01:34.848Z,5.47
2022-11-20T15:04:12.241Z,6.22
2022-11-20T15:06:50.468Z,5.85
2022-11-20T15:09:17.477Z,5.95
2022-11-20T15:11:58.002Z,5.90
2022-11-20T15:14:26.715Z,6.25
2022-11-20T15:16:54.293Z,5.47
2022-11-20T15:19:25.854Z,5.05
2022-11-20T15:21:53.182Z,5.40
2022-11-20T15:24:20.812Z,6.55
2022-11-20T15:26:48.840Z,6.25
2022-11-20T15:29:20.345Z,6.00
2022-11-20T15:31:47.353Z,5.38
2022-11-20T15:34:16.100Z,5.60
2022-11-20T15:36:44.576Z,5.57
2022-11-20T15:39:12.703Z,5.40
2022-11-20T15:41:40.020Z,6.03
2022-11-20T15:44:07.255Z,7.53
2022-11-20T15:46:39.578Z,5.78
2022-11-20T15:49:10.239Z,6.22
2022-11-20T15:51:39.436Z,5.60
2022-11-20T15:54:23.675Z,5.18
2022-11-20T15:56:53.431Z,6.35
2022-11-20T15:59:21.096Z,6.25
2022-11-20T16:01:48.011Z,5.90
2022-11-20T16:04:17.660Z,6.15
2022-11-20T16:06:44.641Z,6.38
2022-11-20T16:09:11.814Z,6.18
2022-11-20T16:11:39.037Z,8.13
2022-11-20T16:14:26.026Z,6.10
2022-11-20T16:16:53.320Z,6.45
2022-11-20T16:19:20.302Z,5.68
2022-11-20T16:21:47.756Z,5.95
2022-11-20T16:24:15.441Z,6.10
2022-11-20T16:26:42.938Z,4.72
2022-11-20T16:29:11.231Z,5.93
2022-11-20T16:31:38.538Z,6.10
2022-11-20T16:34:12.447Z,6.13
2022-11-20T16:36:45.852Z,5.88
2022-11-20T16:39:13.460Z,5.22
2022-11-20T16:41:40.366Z,6.22
2022-11-20T16:44:10.229Z,5.55
2022-11-20T16:46:37.380Z,6.55
2022-11-20T16:49:13.363Z,5.65
2022-11-20T16:51:40.344Z,6.63
2022-11-20T16:54:09.435Z,5.50
2022-11-20T16:56:36.909Z,6.85
2022-11-20T16:59:04.653Z,6.80
2022-11-20T17:01:32.044Z,4.97
2022-11-20T17:04:01.961Z,5.55
2022-11-20T17:06:31.870Z,6.07
2022-11-20T17:09:00.034Z,6.63
2022-11-20T17:11:27.659Z,6.45
2022-11-20T17:14:03.742Z,7.03
2022-11-20T17:16:31.435Z,7.80
2022-11-20T17:19:02.827Z,7.20
2022-11-20T17:21:36.306Z,7.80
2022-11-20T17:24:06.587Z,6.68
2022-11-20T17:26:34.709Z,7.45
2022-11-20T17:29:07.474Z,7.03
2022-11-20T17:31:35.223Z,7.90
2022-11-20T17:34:02.712Z,7.28
2022-11-20T17:36:30.979Z,6.38
2022-11-20T17:38:58.549Z,5.55
2022-11-20T17:41:28.351Z,3.85
2022-11-20T17:43:57.676Z,3.13
2022-11-20T17:46:29.995Z,3.42
2022-11-20T17:48:57.130Z,3.30
2022-11-20T17:51:27.011Z,3.10
2022-11-20T17:53:56.842Z,3.22
2022-11-20T17:56:42.509Z,2.20
2022-11-20T17:59:12.370Z,2.83
2022-11-20T18:01:40.670Z,2.38
2022-11-20T18:04:07.595Z,2.60
2022-11-20T18:06:34.504Z,2.20
2022-11-20T18:09:04.284Z,1.67
2022-11-20T18:11:39.578Z,1.83
2022-11-20T18:14:32.843Z,2.25
2022-11-20T18:17:09.718Z,1.25
2022-11-20T18:22:27.830Z,1.30
2022-11-20T18:24:54.834Z,0.60
2022-11-20T18:27:23.317Z,1.10
2022-11-20T18:29:52.194Z,0.90
2022-11-20T18:32:21.634Z,0.70
2022-11-20T18:34:49.275Z,0.52
2022-11-20T18:37:17.127Z,0.90
2022-11-20T18:39:44.442Z,1.00
2022-11-20T18:42:32.457Z,0.95
2022-11-20T18:45:00.453Z,0.82
2022-11-20T18:47:32.130Z,1.27
2022-11-20T18:50:01.277Z,1.10
2022-11-20T18:52:34.196Z,1.00
2022-11-20T18:55:02.702Z,1.20
2022-11-20T18:57:30.109Z,0.90
2022-11-20T19:00:06.374Z,1.23
2022-11-20T19:02:41.093Z,1.10
2022-11-20T19:05:09.996Z,0.95
2022-11-20T19:07:36.965Z,0.93
2022-11-20T19:10:05.298Z,1.00
2022-11-20T19:12:32.225Z,0.90
2022-11-20T19:14:59.121Z,0.90
2022-11-20T19:17:26.072Z,0.90
2022-11-20T19:19:55.056Z,1.08
2022-11-20T19:22:22.488Z,0.85
2022-11-20T19:24:49.848Z,1.13
2022-11-20T19:27:17.046Z,0.90
2022-11-20T19:29:44.137Z,0.80
2022-11-20T19:32:11.479Z,0.80
2022-11-20T19:34:38.456Z,0.80
2022-11-20T19:37:05.560Z,0.60
2022-11-20T19:39:32.541Z,0.60
2022-11-20T19:41:59.534Z,0.50
2022-11-20T19:44:26.393Z,0.40
2022-11-20T19:46:53.787Z,0.70
2022-11-20T19:49:20.917Z,0.65
2022-11-20T19:51:49.543Z,0.40
2022-11-20T19:54:17.560Z,0.60
2022-11-20T19:56:45.612Z,0.52
2022-11-20T19:59:13.175Z,0.52
2022-11-20T20:01:40.280Z,0.57
2022-11-20T20:04:07.329Z,0.38
2022-11-20T20:06:36.382Z,0.40
2022-11-20T20:09:09.133Z,0.28
2022-11-20T20:11:37.192Z,0.20
2022-11-20T20:14:10.280Z,0.20
2022-11-20T20:16:37.486Z,0.20
2022-11-20T20:19:05.621Z,0.20
2022-11-20T20:21:36.428Z,0.47
2022-11-20T20:24:04.285Z,0.38
2022-11-20T20:26:32.684Z,0.38
2022-11-20T20:29:01.519Z,0.40
2022-11-20T20:31:31.102Z,0.45
2022-11-20T20:33:58.358Z,0.50
2022-11-20T20:36:25.596Z,0.80
2022-11-20T20:38:57.161Z,0.88
2022-11-20T20:41:25.137Z,0.70
2022-11-20T20:44:10.916Z,0.60
2022-11-20T20:46:38.109Z,0.90
2022-11-20T20:49:05.235Z,0.98
2022-11-20T20:51:32.144Z,0.90
2022-11-20T20:53:59.714Z,1.02
2022-11-20T20:56:26.960Z,1.15
2022-11-20T20:58:54.004Z,1.17
2022-11-20T21:01:21.524Z,1.60
2022-11-20T21:03:48.724Z,1.15
2022-11-20T21:06:15.653Z,1.10
2022-11-20T21:08:44.465Z,1.30
2022-11-20T21:11:17.878Z,1.13
2022-11-20T21:13:46.612Z,0.70
2022-11-20T21:16:15.630Z,0.50
2022-11-20T21:18:43.042Z,0.70
2022-11-20T21:21:32.012Z,0.43
2022-11-20T21:23:59.314Z,0.40
2022-11-20T21:26:26.387Z,0.60
2022-11-20T21:28:53.582Z,0.28
2022-11-20T21:31:23.608Z,0.25
2022-11-20T21:33:53.912Z,0.30
2022-11-20T21:36:31.442Z,0.50
2022-11-20T21:38:59.691Z,0.40
2022-11-20T21:41:28.493Z,0.55
2022-11-20T21:44:29.560Z,0.63
2022-11-20T21:46:45.081Z,0.60
2022-11-20T21:49:12.487Z,0.75
2022-11-20T21:51:39.429Z,0.98
2022-11-20T21:54:06.317Z,1.60
2022-11-20T21:56:33.349Z,1.45
2022-11-20T21:59:00.725Z,1.02
2022-11-20T22:01:30.442Z,1.10
2022-11-20T22:04:00.246Z,1.40
2022-11-20T22:06:32.696Z,1.67
2022-11-20T22:09:00.534Z,2.33
2022-11-20T22:11:27.888Z,2.47
2022-11-20T22:14:13.410Z,2.85
2022-11-20T22:16:40.463Z,2.60
2022-11-20T22:19:07.828Z,2.88
2022-11-20T22:21:35.307Z,3.33
2022-11-20T22:24:02.286Z,3.45
2022-11-20T22:26:33.969Z,2.95
2022-11-20T22:29:04.933Z,3.05
2022-11-20T22:31:32.433Z,2.50
2022-11-20T22:34:02.204Z,2.60
2022-11-20T22:36:31.030Z,2.42
2022-11-20T22:38:58.801Z,2.15
2022-11-20T22:41:29.165Z,2.25
2022-11-20T22:43:58.451Z,2.88
2022-11-20T22:46:27.315Z,2.70
2022-11-20T22:48:56.404Z,2.10
2022-11-20T22:51:28.482Z,2.30
2022-11-20T22:53:55.544Z,2.60
2022-11-20T22:56:22.996Z,2.78
2022-11-20T22:58:51.990Z,2.80
2022-11-20T23:01:34.785Z,2.40
2022-11-20T23:04:04.172Z,3.15
2022-11-20T23:06:34.516Z,3.15
2022-11-20T23:09:05.652Z,3.95
2022-11-20T23:11:33.492Z,3.90
2022-11-20T23:14:03.375Z,4.55
2022-11-20T23:16:31.536Z,4.32
2022-11-20T23:19:01.406Z,5.10
2022-11-20T23:21:28.832Z,3.97
2022-11-20T23:23:57.579Z,4.13
2022-11-20T23:26:30.279Z,4.25
2022-11-20T23:28:58.842Z,3.53
2022-11-20T23:31:28.426Z,3.97
2022-11-20T23:33:55.337Z,4.03
2022-11-20T23:36:22.762Z,2.25
2022-11-20T23:38:49.863Z,12.32
2022-11-20T23:41:16.854Z,12.65
2022-11-20T23:43:43.873Z,27.70
2022-11-20T23:46:15.196Z,27.00
2022-11-20T23:48:45.416Z,10.88
2022-11-20T23:51:13.169Z,16.23
2022-11-20T23:53:40.266Z,11.90
2022-11-20T23:56:07.899Z,17.13
2022-11-20T23:58:38.858Z,11.57
